createdAt,value
2022-12-26T00:01:45.940Z,100.00
2022-12-26T00:04:50.165Z,100.00
2022-12-26T00:06:59.252Z,100.00
2022-12-26T00:09:25.807Z,100.00
2022-12-26T00:11:52.264Z,100.00
2022-12-26T00:14:18.710Z,100.00
2022-12-26T00:16:46.396Z,100.00
2022-12-26T00:19:13.044Z,100.00
2022-12-26T00:21:39.920Z,100.00
2022-12-26T00:24:10.113Z,100.00
2022-12-26T00:26:36.939Z,100.00
2022-12-26T00:29:03.441Z,100.00
2022-12-26T00:31:32.642Z,100.00
2022-12-26T00:33:59.998Z,100.00
2022-12-26T00:36:29.671Z,100.00
2022-12-26T00:38:57.656Z,100.00
2022-12-26T00:41:24.301Z,100.00
2022-12-26T00:43:50.976Z,100.00
2022-12-26T00:46:18.018Z,100.00
2022-12-26T00:48:44.732Z,100.00
2022-12-26T00:51:11.312Z,100.00
2022-12-26T00:53:38.235Z,100.00
2022-12-26T00:56:04.896Z,100.00
2022-12-26T00:58:31.373Z,100.00
2022-12-26T01:01:10.301Z,100.00
2022-12-26T01:03:36.933Z,100.00
2022-12-26T01:06:04.180Z,100.00
2022-12-26T01:08:30.815Z,100.00
2022-12-26T01:10:57.706Z,100.00
2022-12-26T01:13:24.137Z,100.00
2022-12-26T01:15:52.425Z,100.00
2022-12-26T01:18:19.639Z,100.00
2022-12-26T01:20:46.372Z,100.00
2022-12-26T01:23:12.831Z,100.00
2022-12-26T01:26:16.873Z,100.00
2022-12-26T01:28:26.725Z,100.00
2022-12-26T01:30:53.240Z,100.00
2022-12-26T01:33:19.715Z,100.00
2022-12-26T01:35:52.962Z,100.00
2022-12-26T01:38:20.311Z,100.00
2022-12-26T01:40:47.613Z,100.00
2022-12-26T01:43:16.116Z,100.00
2022-12-26T01:45:49.828Z,100.00
2022-12-26T01:48:22.595Z,100.00
2022-12-26T01:50:56.790Z,100.00
2022-12-26T01:53:34.018Z,100.00
2022-12-26T01:56:07.220Z,100.00
2022-12-26T01:58:37.982Z,100.00
2022-12-26T02:01:06.478Z,100.00
2022-12-26T02:03:51.477Z,100.00
2022-12-26T02:06:17.910Z,100.00
2022-12-26T02:08:46.383Z,100.00
2022-12-26T02:11:18.252Z,100.00
2022-12-26T02:13:44.960Z,100.00
2022-12-26T02:16:16.127Z,100.00
2022-12-26T02:18:42.794Z,100.00
2022-12-26T02:21:36.849Z,100.00
2022-12-26T02:24:24.612Z,100.00
2022-12-26T02:27:09.676Z,100.00
2022-12-26T02:30:08.334Z,100.00
2022-12-26T02:32:53.549Z,100.00
2022-12-26T02:36:05.590Z,100.00
2022-12-26T02:38:38.061Z,100.00
2022-12-26T02:41:15.904Z,100.00
2022-12-26T02:44:34.056Z,100.00
2022-12-26T02:47:23.398Z,100.00
2022-12-26T02:50:27.980Z,100.00
2022-12-26T02:53:28.244Z,100.00
2022-12-26T02:56:23.178Z,100.00
2022-12-26T02:59:56.222Z,100.00
2022-12-26T03:02:56.447Z,100.00
2022-12-26T03:05:52.752Z,100.00
2022-12-26T03:08:46.597Z,100.00
2022-12-26T03:11:32.232Z,100.00
2022-12-26T03:14:16.944Z,100.00
2022-12-26T03:17:09.014Z,100.00
2022-12-26T03:19:58.093Z,100.00
2022-12-26T03:22:46.207Z,100.00
2022-12-26T03:25:55.610Z,100.00
2022-12-26T03:28:23.223Z,100.00
2022-12-26T03:30:50.449Z,100.00
2022-12-26T03:33:38.308Z,100.00
2022-12-26T03:36:06.112Z,100.00
2022-12-26T03:38:55.283Z,100.00
2022-12-26T03:41:50.922Z,100.00
2022-12-26T03:44:53.500Z,100.00
2022-12-26T03:47:47.857Z,100.00
2022-12-26T03:51:01.361Z,100.00
2022-12-26T03:54:12.968Z,100.00
2022-12-26T03:57:10.786Z,100.00
2022-12-26T04:00:06.173Z,100.00
2022-12-26T04:02:53.019Z,100.00
2022-12-26T04:05:39.369Z,100.00
2022-12-26T04:08:32.828Z,100.00
2022-12-26T04:11:20.336Z,100.00
2022-12-26T04:14:08.231Z,100.00
2022-12-26T04:16:58.107Z,100.00
2022-12-26T04:19:27.493Z,100.00
2022-12-26T04:22:34.549Z,100.00
2022-12-26T04:25:49.700Z,100.00
2022-12-26T04:28:37.697Z,100.00
2022-12-26T04:31:27.876Z,100.00
2022-12-26T04:34:18.378Z,100.00
2022-12-26T04:37:18.523Z,100.00
2022-12-26T04:40:06.502Z,100.00
2022-12-26T04:42:53.443Z,100.00
2022-12-26T04:45:21.356Z,100.00
2022-12-26T04:48:08.417Z,100.00
2022-12-26T04:50:34.948Z,100.00
2022-12-26T04:53:01.512Z,100.00
2022-12-26T04:55:32.937Z,100.00
2022-12-26T04:57:59.991Z,100.00
2022-12-26T05:00:28.645Z,100.00
2022-12-26T05:03:19.248Z,100.00
2022-12-26T05:06:08.212Z,100.00
2022-12-26T05:08:57.112Z,100.00
2022-12-26T05:11:24.219Z,100.00
2022-12-26T05:13:53.265Z,100.00
2022-12-26T05:16:37.947Z,100.00
2022-12-26T05:19:23.186Z,100.00
2022-12-26T05:22:08.682Z,100.00
2022-12-26T05:24:59.368Z,100.00
2022-12-26T05:27:53.761Z,100.00
2022-12-26T05:30:20.170Z,100.00
2022-12-26T05:33:04.902Z,100.00
2022-12-26T05:35:32.443Z,100.00
2022-12-26T05:37:58.862Z,100.00
2022-12-26T05:40:25.433Z,100.00
2022-12-26T05:42:51.825Z,100.00
2022-12-26T05:45:18.577Z,100.00
2022-12-26T05:47:51.477Z,100.00
2022-12-26T05:50:18.313Z,100.00
2022-12-26T05:52:44.698Z,100.00
2022-12-26T05:55:11.106Z,100.00
2022-12-26T05:57:37.562Z,100.00
2022-12-26T06:00:04.495Z,100.00
2022-12-26T06:02:30.976Z,100.00
2022-12-26T06:04:57.502Z,100.00
2022-12-26T06:07:23.858Z,100.00
2022-12-26T06:09:50.221Z,100.00
2022-12-26T06:12:16.627Z,100.00
2022-12-26T06:14:43.056Z,100.00
2022-12-26T06:17:09.503Z,100.00
2022-12-26T06:19:38.899Z,100.00
2022-12-26T06:22:07.984Z,100.00
2022-12-26T06:24:34.337Z,100.00
2022-12-26T06:27:00.713Z,100.00
2022-12-26T06:29:27.081Z,100.00
2022-12-26T06:31:53.625Z,100.00
2022-12-26T06:34:20.090Z,100.00
2022-12-26T06:36:46.505Z,100.00
2022-12-26T06:39:12.927Z,100.00
2022-12-26T06:41:39.504Z,100.00
2022-12-26T06:44:05.867Z,100.00
2022-12-26T06:46:32.310Z,100.00
2022-12-26T06:48:58.809Z,100.00
2022-12-26T06:51:26.504Z,100.00
2022-12-26T06:53:53.469Z,100.00
2022-12-26T06:56:22.520Z,100.00
2022-12-26T06:58:59.905Z,100.00
2022-12-26T07:01:28.277Z,100.00
2022-12-26T07:03:55.606Z,100.00
2022-12-26T07:06:28.131Z,100.00
2022-12-26T07:09:02.041Z,100.00
2022-12-26T07:11:30.989Z,100.00
2022-12-26T07:13:58.055Z,100.00
2022-12-26T07:16:24.954Z,100.00
2022-12-26T07:18:56.313Z,100.00
2022-12-26T07:21:23.885Z,100.00
2022-12-26T07:23:50.906Z,100.00
2022-12-26T07:26:17.490Z,100.00
2022-12-26T07:28:44.060Z,100.00
2022-12-26T07:31:16.618Z,100.00
2022-12-26T07:33:43.595Z,100.00
2022-12-26T07:36:10.110Z,100.00
2022-12-26T07:38:36.509Z,100.00
2022-12-26T07:41:25.563Z,100.00
2022-12-26T07:43:52.513Z,100.00
2022-12-26T07:46:19.605Z,100.00
2022-12-26T07:48:46.190Z,100.00
2022-12-26T07:51:12.982Z,100.00
2022-12-26T07:53:39.377Z,100.00
2022-12-26T07:56:06.251Z,100.00
2022-12-26T07:58:32.633Z,100.00
2022-12-26T08:01:03.970Z,100.00
2022-12-26T08:03:30.648Z,100.00
2022-12-26T08:05:57.514Z,100.00
2022-12-26T08:08:23.894Z,100.00
2022-12-26T08:11:02.137Z,100.00
2022-12-26T08:13:30.101Z,100.00
2022-12-26T08:15:57.315Z,100.00
2022-12-26T08:18:25.013Z,100.00
2022-12-26T08:20:51.941Z,100.00
2022-12-26T08:23:18.469Z,100.00
2022-12-26T08:25:45.045Z,100.00
2022-12-26T08:28:11.595Z,100.00
2022-12-26T08:30:41.545Z,100.00
2022-12-26T08:33:08.581Z,100.00
2022-12-26T08:35:36.145Z,100.00
2022-12-26T08:38:02.971Z,100.00
2022-12-26T08:40:42.696Z,100.00
2022-12-26T08:43:31.974Z,100.00
2022-12-26T08:46:11.536Z,100.00
2022-12-26T08:48:41.410Z,100.00
2022-12-26T08:51:12.093Z,100.00
2022-12-26T08:53:38.551Z,100.00
2022-12-26T08:56:07.679Z,100.00
2022-12-26T08:58:35.237Z,100.00
2022-12-26T09:01:10.881Z,100.00
2022-12-26T09:03:38.122Z,100.00
2022-12-26T09:06:06.480Z,100.00
2022-12-26T09:08:35.022Z,100.00
2022-12-26T09:11:03.846Z,100.00
2022-12-26T09:13:31.338Z,100.00
2022-12-26T09:16:06.239Z,100.00
2022-12-26T09:18:32.699Z,100.00
2022-12-26T09:21:01.003Z,100.00
2022-12-26T09:23:28.903Z,100.00
2022-12-26T09:25:55.627Z,100.00
2022-12-26T09:28:22.593Z,100.00
2022-12-26T09:30:49.069Z,100.00
2022-12-26T09:33:15.487Z,100.00
2022-12-26T09:35:42.386Z,100.00
2022-12-26T09:38:08.736Z,100.00
2022-12-26T09:41:04.326Z,100.00
2022-12-26T09:43:50.901Z,100.00
2022-12-26T09:46:24.391Z,100.00
2022-12-26T09:49:12.155Z,100.00
2022-12-26T09:51:41.667Z,100.00
2022-12-26T09:54:18.742Z,100.00
2022-12-26T09:57:02.400Z,100.00
2022-12-26T09:59:34.283Z,100.00
2022-12-26T10:02:00.862Z,100.00
2022-12-26T10:04:30.524Z,100.00
2022-12-26T10:07:05.588Z,100.00
2022-12-26T10:09:40.950Z,100.00
2022-12-26T10:12:13.289Z,100.00
2022-12-26T10:14:58.624Z,100.00
2022-12-26T10:17:37.281Z,100.00
2022-12-26T10:20:26.983Z,100.00
2022-12-26T10:23:22.355Z,100.00
2022-12-26T10:26:09.044Z,100.00
2022-12-26T10:28:46.062Z,100.00
2022-12-26T10:31:22.691Z,100.00
2022-12-26T10:33:55.833Z,100.00
2022-12-26T10:36:30.970Z,100.00
2022-12-26T10:38:59.605Z,100.00
2022-12-26T10:41:48.162Z,100.00
2022-12-26T10:44:15.714Z,100.00
2022-12-26T10:46:53.952Z,100.00
2022-12-26T10:49:23.386Z,100.00
2022-12-26T10:51:51.361Z,100.00
2022-12-26T10:54:20.025Z,100.00
2022-12-26T10:56:50.588Z,100.00
2022-12-26T10:59:22.093Z,100.00
2022-12-26T11:01:49.882Z,100.00
2022-12-26T11:04:44.560Z,100.00
2022-12-26T11:07:11.664Z,100.00
2022-12-26T11:09:45.467Z,100.00
2022-12-26T11:12:25.715Z,100.00
2022-12-26T11:14:59.225Z,100.00
2022-12-26T11:17:31.137Z,100.00
2022-12-26T11:20:15.562Z,100.00
2022-12-26T11:22:46.413Z,100.00
2022-12-26T11:25:35.735Z,100.00
2022-12-26T11:28:20.740Z,100.00
2022-12-26T11:30:48.019Z,100.00
2022-12-26T11:33:27.876Z,100.00
2022-12-26T11:36:30.091Z,100.00
2022-12-26T11:39:03.981Z,100.00
2022-12-26T11:41:33.545Z,99.97
2022-12-26T11:44:23.457Z,98.95
2022-12-26T11:47:09.171Z,95.51
2022-12-26T11:49:39.337Z,98.09
2022-12-26T11:52:38.748Z,95.10
2022-12-26T11:55:26.893Z,93.41
2022-12-26T11:58:08.654Z,94.09
2022-12-26T12:00:37.636Z,93.46
2022-12-26T12:03:11.051Z,97.05
2022-12-26T12:06:13.792Z,95.43
2022-12-26T12:08:50.838Z,97.29
2022-12-26T12:11:35.772Z,92.70
2022-12-26T12:14:08.174Z,89.60
2022-12-26T12:16:43.639Z,91.07
2022-12-26T12:19:44.580Z,91.46
2022-12-26T12:22:26.039Z,93.87
2022-12-26T12:25:16.522Z,95.04
2022-12-26T12:27:59.533Z,94.26
2022-12-26T12:30:42.808Z,94.29
2022-12-26T12:33:18.633Z,91.19
2022-12-26T12:36:11.457Z,89.86
2022-12-26T12:38:54.709Z,90.54
2022-12-26T12:41:55.275Z,86.62
2022-12-26T12:44:24.675Z,88.05
2022-12-26T12:46:57.488Z,84.90
2022-12-26T12:49:34.013Z,86.84
2022-12-26T12:52:13.820Z,86.80
2022-12-26T12:54:46.070Z,81.45
2022-12-26T12:57:48.044Z,81.42
2022-12-26T13:00:27.790Z,78.22
2022-12-26T13:03:01.546Z,78.40
2022-12-26T13:05:43.525Z,78.40
2022-12-26T13:08:21.022Z,74.56
2022-12-26T13:10:57.893Z,78.40
2022-12-26T13:13:37.897Z,80.17
2022-12-26T13:16:14.150Z,85.69
2022-12-26T13:18:49.246Z,85.75
2022-12-26T13:21:15.803Z,85.59
2022-12-26T13:24:10.628Z,84.65
2022-12-26T13:26:45.050Z,83.91
2022-12-26T13:29:13.933Z,83.23
2022-12-26T13:31:41.671Z,80.37
2022-12-26T13:34:17.248Z,83.22
2022-12-26T13:36:49.465Z,83.65
2022-12-26T13:39:27.750Z,84.50
2022-12-26T13:42:38.143Z,85.76
2022-12-26T13:45:35.497Z,84.70
2022-12-26T13:48:22.636Z,84.92
2022-12-26T13:50:56.359Z,86.08
2022-12-26T13:53:25.840Z,83.76
2022-12-26T13:56:30.632Z,83.74
2022-12-26T13:59:06.865Z,83.60
2022-12-26T14:01:53.628Z,83.95
2022-12-26T14:04:46.455Z,84.97
2022-12-26T14:07:25.062Z,85.98
2022-12-26T14:09:54.486Z,86.32
2022-12-26T14:12:46.395Z,88.00
2022-12-26T14:15:24.452Z,86.99
2022-12-26T14:18:15.622Z,86.60
2022-12-26T14:20:47.853Z,87.64
2022-12-26T14:23:17.463Z,87.80
2022-12-26T14:25:53.438Z,87.71
2022-12-26T14:28:29.398Z,87.08
2022-12-26T14:31:14.445Z,85.44
2022-12-26T14:33:55.207Z,85.80
2022-12-26T14:36:43.519Z,85.92
2022-12-26T14:39:19.944Z,86.06
2022-12-26T14:42:44.231Z,86.63
2022-12-26T14:45:28.736Z,88.28
2022-12-26T14:47:55.319Z,88.62
2022-12-26T14:50:51.178Z,89.92
2022-12-26T14:53:17.574Z,91.47
2022-12-26T14:55:48.395Z,92.29
2022-12-26T14:58:36.612Z,92.78
2022-12-26T15:01:09.194Z,93.35
2022-12-26T15:03:44.767Z,94.35
2022-12-26T15:06:46.127Z,94.21
2022-12-26T15:09:24.211Z,94.25
2022-12-26T15:12:18.138Z,94.17
2022-12-26T15:14:59.625Z,94.93
2022-12-26T15:17:44.121Z,95.23
2022-12-26T15:20:32.213Z,95.37
2022-12-26T15:23:13.128Z,95.40
2022-12-26T15:25:57.507Z,95.84
2022-12-26T15:28:45.290Z,96.69
2022-12-26T15:31:24.965Z,97.28
2022-12-26T15:34:13.062Z,96.92
2022-12-26T15:36:52.010Z,96.51
2022-12-26T15:39:52.842Z,96.64
2022-12-26T15:42:28.248Z,96.70
2022-12-26T15:45:17.698Z,95.91
2022-12-26T15:47:58.143Z,95.85
2022-12-26T15:50:30.692Z,95.61
2022-12-26T15:53:41.500Z,96.95
2022-12-26T15:56:19.529Z,97.19
2022-12-26T15:59:09.301Z,97.65
2022-12-26T16:01:36.249Z,97.12
2022-12-26T16:04:08.924Z,96.48
2022-12-26T16:06:56.975Z,97.10
2022-12-26T16:09:46.456Z,97.46
2022-12-26T16:12:35.208Z,97.43
2022-12-26T16:15:10.578Z,95.92
2022-12-26T16:17:38.488Z,95.03
2022-12-26T16:20:18.846Z,93.59
2022-12-26T16:22:48.837Z,93.78
2022-12-26T16:25:24.013Z,92.12
2022-12-26T16:27:57.350Z,90.35
2022-12-26T16:30:26.884Z,89.99
2022-12-26T16:32:54.595Z,89.96
2022-12-26T16:35:29.487Z,91.48
2022-12-26T16:37:58.260Z,89.47
2022-12-26T16:40:34.797Z,87.93
2022-12-26T16:43:24.756Z,89.02
2022-12-26T16:45:54.625Z,89.42
2022-12-26T16:48:24.063Z,90.17
2022-12-26T16:50:52.418Z,89.95
2022-12-26T16:53:21.391Z,88.72
2022-12-26T16:55:50.743Z,88.77
2022-12-26T16:58:36.570Z,88.45
2022-12-26T17:01:05.980Z,87.74
2022-12-26T17:03:40.701Z,87.82
2022-12-26T17:06:13.054Z,88.90
2022-12-26T17:08:42.907Z,89.21
2022-12-26T17:11:09.370Z,89.86
2022-12-26T17:13:35.996Z,89.41
2022-12-26T17:16:06.556Z,85.34
2022-12-26T17:18:42.694Z,85.82
2022-12-26T17:21:30.753Z,80.61
2022-12-26T17:24:20.605Z,80.66
2022-12-26T17:26:52.892Z,80.43
2022-12-26T17:29:37.051Z,81.70
2022-12-26T17:32:08.704Z,81.95
2022-12-26T17:34:39.258Z,83.76
2022-12-26T17:37:18.910Z,85.27
2022-12-26T17:39:57.846Z,85.06
2022-12-26T17:42:29.162Z,82.47
2022-12-26T17:44:56.771Z,81.66
2022-12-26T17:47:25.694Z,81.22
2022-12-26T17:49:53.382Z,82.05
2022-12-26T17:52:22.831Z,82.61
2022-12-26T17:54:49.886Z,81.97
2022-12-26T17:57:28.155Z,79.99
2022-12-26T17:59:56.003Z,79.55
2022-12-26T18:02:23.002Z,81.36
2022-12-26T18:04:50.251Z,82.27
2022-12-26T18:07:30.604Z,81.85
2022-12-26T18:09:58.775Z,80.36
2022-12-26T18:12:25.192Z,81.67
2022-12-26T18:14:54.667Z,82.51
2022-12-26T18:17:26.065Z,80.25
2022-12-26T18:19:52.655Z,79.13
2022-12-26T18:22:19.713Z,80.31
2022-12-26T18:24:46.139Z,82.29
2022-12-26T18:27:22.652Z,80.70
2022-12-26T18:29:50.265Z,81.28
2022-12-26T18:32:29.443Z,81.84
2022-12-26T18:34:56.198Z,81.22
2022-12-26T18:37:24.902Z,81.26
2022-12-26T18:39:51.410Z,81.05
2022-12-26T18:42:18.459Z,80.80
2022-12-26T18:44:45.358Z,82.01
2022-12-26T18:47:19.626Z,81.66
2022-12-26T18:49:46.802Z,81.59
2022-12-26T18:52:17.878Z,81.28
2022-12-26T18:54:44.914Z,81.58
2022-12-26T18:57:17.504Z,82.76
2022-12-26T18:59:44.064Z,82.67
2022-12-26T19:02:18.759Z,83.68
2022-12-26T19:04:48.353Z,83.37
2022-12-26T19:07:16.993Z,82.96
2022-12-26T19:09:49.084Z,82.72
2022-12-26T19:12:16.716Z,82.28
2022-12-26T19:14:46.317Z,82.63
2022-12-26T19:17:13.267Z,83.81
2022-12-26T19:19:39.735Z,84.15
2022-12-26T19:22:06.495Z,85.69
2022-12-26T19:24:34.026Z,85.86
2022-12-26T19:27:01.612Z,84.97
2022-12-26T19:29:28.203Z,85.49
2022-12-26T19:31:56.247Z,83.67
2022-12-26T19:34:23.444Z,85.11
2022-12-26T19:36:49.986Z,86.60
2022-12-26T19:39:16.539Z,87.29
2022-12-26T19:41:42.945Z,86.58
2022-12-26T19:44:09.826Z,86.53
2022-12-26T19:46:36.331Z,86.39
2022-12-26T19:49:02.755Z,86.53
2022-12-26T19:51:29.127Z,84.98
2022-12-26T19:53:55.486Z,84.20
2022-12-26T19:56:27.818Z,84.77
2022-12-26T19:58:56.752Z,84.63
2022-12-26T20:01:26.198Z,85.16
2022-12-26T20:03:58.846Z,85.30
2022-12-26T20:06:27.129Z,86.06
2022-12-26T20:08:57.655Z,86.73
2022-12-26T20:11:29.817Z,84.56
2022-12-26T20:13:56.272Z,83.33
2022-12-26T20:17:03.156Z,81.48
2022-12-26T20:19:11.755Z,82.45
2022-12-26T20:21:38.427Z,82.49
2022-12-26T20:24:05.518Z,81.14
2022-12-26T20:26:31.960Z,80.64
2022-12-26T20:29:03.088Z,82.41
2022-12-26T20:31:31.727Z,83.21
2022-12-26T20:33:58.806Z,83.87
2022-12-26T20:36:27.671Z,82.95
2022-12-26T20:38:56.513Z,82.12
2022-12-26T20:41:24.810Z,83.41
2022-12-26T20:43:51.763Z,83.77
2022-12-26T20:46:20.940Z,84.51
2022-12-26T20:48:49.656Z,83.64
2022-12-26T20:51:19.153Z,84.02
2022-12-26T20:53:45.570Z,85.46
2022-12-26T20:56:12.124Z,85.81
2022-12-26T20:58:38.709Z,87.40
2022-12-26T21:01:12.026Z,87.21
2022-12-26T21:03:38.910Z,86.19
2022-12-26T21:06:09.741Z,85.92
2022-12-26T21:08:37.118Z,86.02
2022-12-26T21:11:12.084Z,86.10
2022-12-26T21:13:39.494Z,85.68
2022-12-26T21:16:14.289Z,85.58
2022-12-26T21:18:41.146Z,84.67
2022-12-26T21:21:10.898Z,83.69
2022-12-26T21:23:37.711Z,84.85
2022-12-26T21:26:05.147Z,85.29
2022-12-26T21:28:32.292Z,85.45
2022-12-26T21:30:58.879Z,85.16
2022-12-26T21:33:25.683Z,85.98
2022-12-26T21:35:53.363Z,86.97
2022-12-26T21:38:22.017Z,87.53
2022-12-26T21:40:49.447Z,87.12
2022-12-26T21:43:16.661Z,87.61
2022-12-26T21:45:43.646Z,87.76
2022-12-26T21:48:10.656Z,87.16
2022-12-26T21:50:37.103Z,88.06
2022-12-26T21:53:03.583Z,88.88
2022-12-26T21:55:31.184Z,89.00
2022-12-26T21:58:00.131Z,88.67
2022-12-26T22:00:26.996Z,88.32
2022-12-26T22:03:12.145Z,88.53
2022-12-26T22:05:41.226Z,87.67
2022-12-26T22:08:09.624Z,87.99
2022-12-26T22:10:55.630Z,88.49
2022-12-26T22:13:24.309Z,89.31
2022-12-26T22:16:07.736Z,89.41
2022-12-26T22:18:46.171Z,89.81
2022-12-26T22:21:18.144Z,91.02
2022-12-26T22:23:45.596Z,91.47
2022-12-26T22:26:14.646Z,91.86
2022-12-26T22:28:42.301Z,90.94
2022-12-26T22:31:18.888Z,89.29
2022-12-26T22:33:45.403Z,88.92
2022-12-26T22:36:11.951Z,90.04
2022-12-26T22:38:38.547Z,89.95
2022-12-26T22:41:05.697Z,90.86
2022-12-26T22:43:32.692Z,90.73
2022-12-26T22:45:59.264Z,88.38
2022-12-26T22:48:25.702Z,87.41
2022-12-26T22:50:54.387Z,86.73
2022-12-26T22:53:25.911Z,87.16
2022-12-26T22:55:57.602Z,87.53
2022-12-26T22:58:24.136Z,87.09
2022-12-26T23:00:50.614Z,87.27
2022-12-26T23:03:18.429Z,86.53
2022-12-26T23:05:45.644Z,87.79
2022-12-26T23:08:21.965Z,88.05
2022-12-26T23:10:49.655Z,87.86
2022-12-26T23:13:16.623Z,86.73
2022-12-26T23:15:55.062Z,87.34
2022-12-26T23:18:50.743Z,88.03
2022-12-26T23:21:41.770Z,89.15
2022-12-26T23:24:24.723Z,88.75
2022-12-26T23:26:56.258Z,88.75
2022-12-26T23:29:43.098Z,89.53
2022-12-26T23:32:10.756Z,89.27
2022-12-26T23:34:37.224Z,88.39
2022-12-26T23:37:03.722Z,88.51
2022-12-26T23:39:30.116Z,88.45
2022-12-26T23:41:56.529Z,88.29
2022-12-26T23:44:22.925Z,88.98
2022-12-26T23:46:49.423Z,90.26
2022-12-26T23:49:16.449Z,89.91
2022-12-26T23:51:42.971Z,90.16
2022-12-26T23:54:10.066Z,89.85
2022-12-26T23:56:37.039Z,90.88
2022-12-26T23:59:04.403Z,89.29
